Time;durP1;ratioP1;P1;durP2;ratioP2;P2;SDS_P1;SDS_P2;PMS_P1;PMS_P2;Temp;Humidity;BMP_temperature;BMP_pressure;BME280_temperature;BME280_humidity;BME280_pressure;Samples;Min_cycle;Max_cycle;Signal;HPM_P1;HPM_P2
2023/05/26 00:00:04;;;;;;;14.73;3.72;;;10.30;99.90;;;;;;5075088;28;20039;-83
2023/05/26 00:02:30;;;;;;;15.18;3.70;;;10.30;99.90;;;;;;5076381;28;20017;-82
2023/05/26 00:04:59;;;;;;;16.92;4.22;;;10.20;99.90;;;;;;5074985;28;20412;-82
2023/05/26 00:07:25;;;;;;;14.65;3.78;;;10.20;99.90;;;;;;5076288;28;20016;-83
2023/05/26 00:09:50;;;;;;;17.73;3.88;;;10.20;99.90;;;;;;5064059;28;20093;-83
2023/05/26 00:12:17;;;;;;;11.85;3.72;;;10.10;99.90;;;;;;5060994;28;20063;-81
2023/05/26 00:14:42;;;;;;;14.70;3.50;;;10.10;99.90;;;;;;5076269;28;20078;-82
2023/05/26 00:17:08;;;;;;;16.75;4.00;;;10.10;99.90;;;;;;5059497;28;20036;-83
2023/05/26 00:19:35;;;;;;;16.23;3.45;;;10.00;99.90;;;;;;5073385;28;20032;-83
2023/05/26 00:22:02;;;;;;;14.85;3.65;;;10.00;99.90;;;;;;5064081;28;20044;-83
2023/05/26 00:24:27;;;;;;;13.57;3.63;;;9.90;99.90;;;;;;5065210;28;20160;-83
2023/05/26 00:26:53;;;;;;;19.15;4.28;;;10.00;99.90;;;;;;5058306;28;20025;-82
2023/05/26 00:29:19;;;;;;;13.48;3.72;;;9.90;99.90;;;;;;5065616;28;20181;-81
2023/05/26 00:31:45;;;;;;;13.77;3.55;;;9.90;99.90;;;;;;5064993;28;20413;-82
2023/05/26 00:34:11;;;;;;;12.98;3.05;;;9.80;99.90;;;;;;5073679;28;20033;-81
2023/05/26 00:36:37;;;;;;;14.77;3.40;;;9.80;99.90;;;;;;5067801;28;20024;-82
2023/05/26 00:39:02;;;;;;;12.18;3.03;;;9.80;99.90;;;;;;5075106;28;20530;-83
2023/05/26 00:41:28;;;;;;;13.80;3.38;;;9.80;99.90;;;;;;5074122;28;20038;-83
2023/05/26 00:43:54;;;;;;;12.70;3.35;;;9.70;99.90;;;;;;5074292;28;20071;-82
2023/05/26 00:46:19;;;;;;;14.20;3.22;;;9.70;99.90;;;;;;5075009;28;20064;-83
2023/05/26 00:48:45;;;;;;;14.75;3.65;;;9.70;99.90;;;;;;5074681;28;20072;-82
2023/05/26 00:51:12;;;;;;;12.88;2.83;;;9.60;99.90;;;;;;5065060;28;20130;-82
2023/05/26 00:53:41;;;;;;;15.98;3.33;;;9.60;99.90;;;;;;5074862;28;20709;-82
2023/05/26 00:56:09;;;;;;;14.63;3.15;;;9.60;99.90;;;;;;5064214;28;20461;-83
2023/05/26 00:58:35;;;;;;;13.85;3.30;;;9.60;99.90;;;;;;5058540;28;20486;-83
2023/05/26 01:01:01;;;;;;;10.43;2.50;;;9.60;99.90;;;;;;5060252;28;20115;-81
2023/05/26 01:03:27;;;;;;;11.25;2.90;;;9.60;99.90;;;;;;5063350;28;20024;-82
2023/05/26 01:05:54;;;;;;;17.05;3.28;;;9.50;99.90;;;;;;5058046;28;20083;-82
2023/05/26 01:08:19;;;;;;;12.45;3.40;;;9.50;99.90;;;;;;5058643;28;20030;-84
2023/05/26 01:10:45;;;;;;;15.65;3.67;;;9.50;99.90;;;;;;5065202;28;20024;-82
2023/05/26 01:13:34;;;;;;;15.15;3.35;;;9.50;99.90;;;;;;5063419;28;20382;-82
2023/05/26 01:16:08;;;;;;;14.82;3.35;;;9.40;99.90;;;;;;5059399;28;20040;-82
2023/05/26 01:18:45;;;;;;;11.80;2.92;;;9.40;99.90;;;;;;5073603;28;20032;-83
2023/05/26 01:21:14;;;;;;;9.35;2.72;;;9.40;99.90;;;;;;5074281;28;20031;-83
2023/05/26 01:24:17;;;;;;;16.52;3.17;;;9.40;99.90;;;;;;5073638;28;20044;-82
2023/05/26 01:27:11;;;;;;;13.90;3.67;;;9.40;99.90;;;;;;5075624;28;20123;-82
2023/05/26 01:29:37;;;;;;;;;;;9.30;99.90;;;;;;5060420;28;20103;-82
2023/05/26 01:32:13;;;;;;;15.10;3.40;;;9.20;99.90;;;;;;5059725;28;20361;-81
2023/05/26 01:34:39;;;;;;;13.82;3.38;;;9.30;99.90;;;;;;5073406;28;20644;-83
2023/05/26 01:37:05;;;;;;;12.73;3.20;;;9.20;99.90;;;;;;5072940;28;20065;-83
2023/05/26 01:39:31;;;;;;;13.30;2.92;;;9.20;99.90;;;;;;5075326;28;20099;-82
2023/05/26 01:42:38;;;;;;;14.32;3.40;;;9.20;99.90;;;;;;5057283;28;20429;-82
2023/05/26 01:45:11;;;;;;;10.73;2.92;;;9.20;99.90;;;;;;4996536;28;20088;-82
2023/05/26 01:47:39;;;;;;;11.90;3.25;;;9.20;99.90;;;;;;4982767;28;20037;-83
2023/05/26 01:50:07;;;;;;;16.98;3.08;;;9.20;99.90;;;;;;5035251;28;20480;-82
2023/05/26 01:52:35;;;;;;;16.85;2.97;;;9.20;99.90;;;;;;5074867;28;20027;-83
2023/05/26 01:55:07;;;;;;;10.10;2.53;;;9.20;99.90;;;;;;5072955;28;20600;-82
2023/05/26 01:57:35;;;;;;;13.40;3.70;;;9.20;99.90;;;;;;5074515;28;20020;-81
2023/05/26 02:00:01;;;;;;;14.15;3.33;;;9.10;99.90;;;;;;5072968;28;20067;-82
2023/05/26 02:02:26;;;;;;;14.60;3.47;;;9.10;99.90;;;;;;5074661;28;20129;-82
2023/05/26 02:04:52;;;;;;;17.88;3.80;;;9.10;99.90;;;;;;5072473;28;20772;-82
2023/05/26 02:07:19;;;;;;;13.85;3.53;;;9.10;99.90;;;;;;5061745;28;20486;-82
2023/05/26 02:09:44;;;;;;;13.10;3.30;;;9.10;99.90;;;;;;5057442;28;20032;-82
2023/05/26 02:12:10;;;;;;;18.17;4.00;;;9.00;99.90;;;;;;5072700;28;20048;-83
2023/05/26 02:14:35;;;;;;;14.95;3.28;;;9.10;99.90;;;;;;5063170;28;20059;-83
2023/05/26 02:17:01;;;;;;;13.77;3.97;;;9.00;99.90;;;;;;5056984;28;20509;-83
2023/05/26 02:19:27;;;;;;;15.90;4.28;;;9.00;99.90;;;;;;5062706;28;20031;-81
2023/05/26 02:21:52;;;;;;;15.38;3.55;;;9.00;99.90;;;;;;5072962;28;20044;-82
2023/05/26 02:24:18;;;;;;;13.02;3.35;;;9.00;99.90;;;;;;5062678;28;20462;-82
2023/05/26 02:26:43;;;;;;;12.70;3.33;;;9.00;99.90;;;;;;5058440;28;20119;-82
2023/05/26 02:29:10;;;;;;;18.45;4.72;;;8.90;99.90;;;;;;5059267;28;20028;-82
2023/05/26 02:31:36;;;;;;;12.30;3.55;;;8.90;99.90;;;;;;5062126;28;20020;-82
2023/05/26 02:34:04;;;;;;;15.73;3.42;;;8.90;99.90;;;;;;5061436;28;20500;-82
2023/05/26 02:36:31;;;;;;;13.43;2.92;;;8.90;99.90;;;;;;5062308;28;20100;-82
2023/05/26 02:38:57;;;;;;;16.77;3.90;;;8.80;99.90;;;;;;5072881;28;20401;-82
2023/05/26 02:41:23;;;;;;;12.20;3.08;;;8.80;99.90;;;;;;5057664;28;20478;-83
2023/05/26 02:43:48;;;;;;;13.85;3.30;;;8.80;99.90;;;;;;5072540;28;20035;-82
2023/05/26 02:46:14;;;;;;;13.85;3.65;;;8.70;99.90;;;;;;5072252;28;20032;-83
2023/05/26 02:48:40;;;;;;;15.95;3.63;;;8.70;99.90;;;;;;5073473;28;21885;-83
2023/05/26 02:51:05;;;;;;;15.80;3.70;;;8.80;99.90;;;;;;5057040;28;20028;-82
2023/05/26 02:53:32;;;;;;;15.30;3.00;;;8.70;99.90;;;;;;5058477;28;20029;-82
2023/05/26 02:55:58;;;;;;;11.45;2.80;;;8.70;99.90;;;;;;5057285;28;20032;-82
2023/05/26 02:58:23;;;;;;;10.65;2.97;;;8.70;99.90;;;;;;5057934;28;20031;-82
2023/05/26 03:00:50;;;;;;;13.10;3.40;;;8.70;99.90;;;;;;5074879;28;20159;-82
2023/05/26 03:03:16;;;;;;;13.55;3.72;;;8.70;99.90;;;;;;5061865;28;20024;-83
2023/05/26 03:05:42;;;;;;;16.80;3.35;;;8.70;99.90;;;;;;5075989;28;20044;-83
2023/05/26 03:08:07;;;;;;;12.07;3.00;;;8.60;99.90;;;;;;5059475;28;20032;-82
2023/05/26 03:10:33;;;;;;;12.27;3.08;;;8.60;99.90;;;;;;5076487;28;20032;-83
2023/05/26 03:12:59;;;;;;;14.25;3.47;;;8.60;99.90;;;;;;5077228;28;20058;-82
2023/05/26 03:15:34;;;;;;;13.35;3.35;;;8.60;99.90;;;;;;5066571;28;20159;-83
2023/05/26 03:18:00;;;;;;;12.88;3.05;;;8.60;99.90;;;;;;5060107;28;20482;-83
2023/05/26 03:20:26;;;;;;;8.30;2.35;;;8.50;99.90;;;;;;5075109;28;20076;-83
2023/05/26 03:22:52;;;;;;;12.32;2.72;;;8.50;99.90;;;;;;5075225;28;20048;-83
2023/05/26 03:25:17;;;;;;;14.02;3.47;;;8.50;99.90;;;;;;5076658;28;20063;-83
2023/05/26 03:27:43;;;;;;;11.50;2.65;;;8.40;99.90;;;;;;5066762;28;20107;-82
2023/05/26 03:30:09;;;;;;;16.58;3.83;;;8.50;99.90;;;;;;5060364;28;20020;-83
2023/05/26 03:32:34;;;;;;;12.75;2.80;;;8.40;99.90;;;;;;5057533;28;20034;-83
2023/05/26 03:35:00;;;;;;;13.50;3.25;;;8.40;99.90;;;;;;5066118;28;20036;-82
2023/05/26 03:37:25;;;;;;;12.40;2.75;;;8.40;99.90;;;;;;5075697;28;20046;-83
2023/05/26 03:39:51;;;;;;;14.15;3.00;;;8.40;99.90;;;;;;5061642;28;20075;-83
2023/05/26 03:42:17;;;;;;;11.85;2.72;;;8.40;99.90;;;;;;5065728;28;20499;-82
2023/05/26 03:44:42;;;;;;;13.38;2.60;;;8.40;99.90;;;;;;5062662;28;20042;-82
2023/05/26 03:47:09;;;;;;;7.82;2.28;;;8.40;99.90;;;;;;5065563;28;20115;-83
2023/05/26 03:49:34;;;;;;;13.50;3.17;;;8.40;99.90;;;;;;5075556;28;20107;-83
2023/05/26 03:52:00;;;;;;;11.57;3.15;;;8.40;99.90;;;;;;5064346;28;20202;-83
2023/05/26 03:54:26;;;;;;;12.82;3.20;;;8.40;99.90;;;;;;5060957;28;20043;-83
2023/05/26 03:56:53;;;;;;;15.02;3.15;;;8.40;99.90;;;;;;5060574;28;20385;-82
2023/05/26 03:59:19;;;;;;;14.00;3.17;;;8.40;99.90;;;;;;5078243;28;20130;-82
2023/05/26 04:01:45;;;;;;;13.60;3.45;;;8.40;99.90;;;;;;5075857;28;20482;-82
2023/05/26 04:04:11;;;;;;;16.20;3.72;;;8.40;99.90;;;;;;5074969;28;20118;-84
2023/05/26 04:06:37;;;;;;;9.55;2.38;;;8.40;99.90;;;;;;5050036;28;20061;-81
2023/05/26 04:09:04;;;;;;;11.80;3.10;;;8.40;99.90;;;;;;5064658;28;20054;-81
2023/05/26 04:11:30;;;;;;;10.95;3.13;;;8.40;99.90;;;;;;5065463;28;20076;-82
2023/05/26 04:13:56;;;;;;;12.65;2.35;;;8.40;99.90;;;;;;5064647;28;20031;-81
2023/05/26 04:16:21;;;;;;;14.25;3.63;;;8.40;99.90;;;;;;5060005;28;20659;-81
2023/05/26 04:18:47;;;;;;;11.45;3.00;;;8.40;99.90;;;;;;5075254;28;20036;-83
2023/05/26 04:21:12;;;;;;;10.23;2.70;;;8.40;99.90;;;;;;5074493;28;20020;-81
2023/05/26 04:23:38;;;;;;;12.73;3.47;;;8.40;99.90;;;;;;5060015;28;20058;-80
2023/05/26 04:26:04;;;;;;;10.60;2.70;;;8.40;99.90;;;;;;5074750;28;21926;-81
2023/05/26 04:28:30;;;;;;;10.82;3.55;;;8.40;99.90;;;;;;5076276;28;20021;-82
2023/05/26 04:30:56;;;;;;;14.07;2.88;;;8.40;99.90;;;;;;5075136;28;20492;-82
2023/05/26 04:33:22;;;;;;;13.55;3.40;;;8.50;99.90;;;;;;5060250;28;20024;-82
2023/05/26 04:35:47;;;;;;;16.55;3.70;;;8.50;99.90;;;;;;5065000;28;20038;-82
2023/05/26 04:38:15;;;;;;;13.82;3.70;;;8.50;99.90;;;;;;5074662;28;20032;-81
2023/05/26 04:40:42;;;;;;;14.65;3.35;;;8.60;99.90;;;;;;5064312;28;20078;-81
2023/05/26 04:43:08;;;;;;;11.32;2.60;;;8.60;99.90;;;;;;5064058;28;20024;-82
2023/05/26 04:45:35;;;;;;;12.10;2.95;;;8.60;99.90;;;;;;5075251;28;20122;-81
2023/05/26 04:48:00;;;;;;;13.13;3.33;;;8.70;99.90;;;;;;5074300;28;20036;-82
2023/05/26 04:50:26;;;;;;;12.57;3.35;;;8.70;99.90;;;;;;5059206;28;20032;-82
2023/05/26 04:52:52;;;;;;;13.38;3.13;;;8.80;99.90;;;;;;5067480;28;20538;-83
2023/05/26 04:55:18;;;;;;;12.70;2.55;;;8.80;99.90;;;;;;5074386;28;20032;-82
2023/05/26 04:57:44;;;;;;;11.45;3.03;;;8.80;99.90;;;;;;5075683;28;20493;-83
2023/05/26 05:00:10;;;;;;;9.40;2.40;;;8.90;99.90;;;;;;5075349;28;20032;-82
2023/05/26 05:02:36;;;;;;;10.50;3.13;;;9.00;99.90;;;;;;5064933;28;20070;-81
2023/05/26 05:05:02;;;;;;;9.55;2.83;;;9.00;99.90;;;;;;5073822;28;20423;-81
2023/05/26 05:07:28;;;;;;;9.50;3.00;;;9.00;99.90;;;;;;5074771;28;20356;-83
2023/05/26 05:09:54;;;;;;;15.77;3.30;;;9.00;99.90;;;;;;5059511;28;20027;-82
2023/05/26 05:12:19;;;;;;;13.85;3.58;;;9.10;99.90;;;;;;5058821;28;20377;-83
2023/05/26 05:14:45;;;;;;;12.13;3.35;;;9.20;99.90;;;;;;5060946;28;20028;-84
2023/05/26 05:17:11;;;;;;;15.82;2.75;;;9.20;99.90;;;;;;5074047;28;20039;-84
2023/05/26 05:19:37;;;;;;;14.77;3.50;;;9.30;99.90;;;;;;5074426;28;20033;-84
2023/05/26 05:22:02;;;;;;;14.15;3.00;;;9.30;99.90;;;;;;5063265;28;20097;-85
2023/05/26 05:24:28;;;;;;;19.20;4.07;;;9.40;99.90;;;;;;5075298;28;20085;-83
2023/05/26 05:26:53;;;;;;;13.73;3.13;;;9.40;99.90;;;;;;5063053;28;20093;-83
2023/05/26 05:29:19;;;;;;;16.50;3.05;;;9.50;99.90;;;;;;5075921;28;20035;-83
2023/05/26 05:31:44;;;;;;;17.77;4.15;;;9.60;99.90;;;;;;5064612;28;20058;-84
2023/05/26 05:34:10;;;;;;;15.05;3.35;;;9.70;99.90;;;;;;5058395;28;20032;-85
2023/05/26 05:36:36;;;;;;;14.32;3.40;;;9.70;99.90;;;;;;5062355;28;20571;-84
2023/05/26 05:39:01;;;;;;;15.63;3.10;;;9.80;99.90;;;;;;5056763;28;20045;-83
2023/05/26 05:41:28;;;;;;;16.73;3.13;;;9.90;99.90;;;;;;5059247;28;20531;-83
2023/05/26 05:43:56;;;;;;;15.48;3.72;;;9.90;99.90;;;;;;5058820;28;20025;-84
2023/05/26 05:46:23;;;;;;;15.90;4.38;;;9.90;99.90;;;;;;5058752;28;20050;-83
2023/05/26 05:48:48;;;;;;;20.75;4.18;;;10.00;99.90;;;;;;5062990;28;20031;-84
2023/05/26 05:51:14;;;;;;;12.02;3.03;;;10.10;99.90;;;;;;5062804;28;20065;-84
2023/05/26 05:53:40;;;;;;;14.85;3.35;;;10.20;99.90;;;;;;5059602;28;20026;-83
2023/05/26 05:56:05;;;;;;;20.90;4.00;;;10.30;99.90;;;;;;5057902;28;20028;-84
2023/05/26 05:58:31;;;;;;;15.65;3.83;;;10.50;99.90;;;;;;5075286;28;20371;-84
2023/05/26 06:00:56;;;;;;;22.52;4.13;;;10.50;99.90;;;;;;5073256;28;20505;-82
2023/05/26 06:03:22;;;;;;;13.80;3.22;;;10.50;99.90;;;;;;5063004;28;20057;-84
2023/05/26 06:05:47;;;;;;;19.83;3.53;;;10.60;99.90;;;;;;5063219;28;20464;-83
2023/05/26 06:08:13;;;;;;;14.05;3.65;;;10.70;99.90;;;;;;5063252;28;20390;-82
2023/05/26 06:10:38;;;;;;;19.85;3.80;;;10.70;99.90;;;;;;5057449;28;20440;-82
2023/05/26 06:13:04;;;;;;;11.15;3.20;;;10.80;99.90;;;;;;5073978;28;20098;-84
2023/05/26 06:15:30;;;;;;;11.45;3.30;;;10.80;99.90;;;;;;5057508;28;20028;-83
2023/05/26 06:17:55;;;;;;;17.33;4.72;;;10.80;99.90;;;;;;5062962;28;20023;-83
2023/05/26 06:20:21;;;;;;;18.10;4.03;;;10.80;99.90;;;;;;5057311;28;20595;-83
2023/05/26 06:22:46;;;;;;;12.82;3.15;;;10.80;99.90;;;;;;5056492;28;20048;-82
2023/05/26 06:25:12;;;;;;;15.07;4.32;;;10.70;99.90;;;;;;5073197;28;20044;-84
2023/05/26 06:27:38;;;;;;;13.52;3.05;;;10.70;99.90;;;;;;5063760;28;20039;-83
2023/05/26 06:30:04;;;;;;;12.65;3.60;;;10.70;99.90;;;;;;5073278;28;20107;-82
2023/05/26 06:32:29;;;;;;;15.95;3.90;;;10.80;99.90;;;;;;5062685;28;20717;-86
2023/05/26 06:34:55;;;;;;;14.88;4.20;;;10.80;99.90;;;;;;5072212;28;20025;-86
2023/05/26 06:37:20;;;;;;;17.27;4.32;;;10.90;99.90;;;;;;5061741;28;20162;-86
2023/05/26 06:39:46;;;;;;;15.23;3.50;;;10.90;99.90;;;;;;5062470;28;20454;-87
2023/05/26 06:42:12;;;;;;;17.38;3.38;;;10.90;99.90;;;;;;5074672;28;20336;-86
2023/05/26 06:44:37;;;;;;;18.35;3.83;;;11.00;99.90;;;;;;5063076;28;20072;-83
2023/05/26 06:47:03;;;;;;;16.85;4.72;;;11.00;99.90;;;;;;5073417;28;20035;-84
2023/05/26 06:49:28;;;;;;;15.20;3.47;;;11.00;99.90;;;;;;5062291;28;20028;-84
2023/05/26 06:51:54;;;;;;;13.50;3.50;;;11.10;99.90;;;;;;5072812;28;20449;-86
2023/05/26 06:54:20;;;;;;;15.57;3.08;;;11.10;99.90;;;;;;5057651;28;20035;-81
2023/05/26 06:56:45;;;;;;;17.08;3.60;;;11.20;99.90;;;;;;5057886;28;20032;-81
2023/05/26 06:59:11;;;;;;;14.60;4.45;;;11.20;99.90;;;;;;5073713;28;20048;-83
2023/05/26 07:01:36;;;;;;;19.30;4.22;;;11.20;99.90;;;;;;5056699;28;20085;-83
2023/05/26 07:04:02;;;;;;;13.15;3.42;;;11.20;99.90;;;;;;5071836;28;20048;-82
2023/05/26 07:06:28;;;;;;;13.77;3.72;;;11.20;99.90;;;;;;5072843;28;20258;-83
2023/05/26 07:08:53;;;;;;;18.48;4.00;;;11.20;99.90;;;;;;5060605;28;20539;-83
2023/05/26 07:11:19;;;;;;;12.15;3.38;;;11.30;99.90;;;;;;5058851;28;20051;-82
2023/05/26 07:13:46;;;;;;;16.60;4.22;;;11.40;99.90;;;;;;5058872;28;20474;-82
2023/05/26 07:16:11;;;;;;;20.13;4.82;;;11.40;99.90;;;;;;5056720;28;20588;-83
2023/05/26 07:18:37;;;;;;;18.33;4.35;;;11.60;99.90;;;;;;5061535;28;20070;-83
2023/05/26 07:21:02;;;;;;;14.20;3.53;;;11.70;99.90;;;;;;5055454;28;20051;-84
2023/05/26 07:23:28;;;;;;;11.85;3.60;;;11.70;99.90;;;;;;5062370;28;20635;-83
2023/05/26 07:25:54;;;;;;;18.48;4.18;;;11.80;99.90;;;;;;5057112;28;20039;-83
2023/05/26 07:28:19;;;;;;;17.88;4.55;;;11.90;99.90;;;;;;5063767;28;20546;-83
2023/05/26 07:30:45;;;;;;;17.40;4.20;;;12.10;99.90;;;;;;5056902;28;20383;-83
2023/05/26 07:33:11;;;;;;;13.60;3.55;;;12.20;99.90;;;;;;5062828;28;20036;-83
2023/05/26 07:35:37;;;;;;;16.80;4.30;;;12.30;99.90;;;;;;5073334;28;20577;-84
2023/05/26 07:38:03;;;;;;;16.48;3.92;;;12.30;99.90;;;;;;5072858;28;20529;-83
2023/05/26 07:40:34;;;;;;;15.20;4.70;;;12.30;99.90;;;;;;5057564;28;20119;-83
2023/05/26 07:43:00;;;;;;;14.70;3.58;;;12.30;99.90;;;;;;5073196;28;20024;-84
2023/05/26 07:45:25;;;;;;;14.48;3.78;;;12.30;99.90;;;;;;5072458;28;20039;-84
2023/05/26 07:47:51;;;;;;;14.23;3.63;;;12.30;99.90;;;;;;5056632;28;20013;-84
2023/05/26 07:50:16;;;;;;;14.30;4.13;;;12.30;99.90;;;;;;5063433;28;20517;-84
2023/05/26 07:52:42;;;;;;;14.93;3.63;;;12.40;99.90;;;;;;5076257;28;20067;-84
2023/05/26 07:55:07;;;;;;;16.27;4.13;;;12.40;99.90;;;;;;5065500;28;20552;-83
2023/05/26 07:57:33;;;;;;;9.95;3.28;;;12.40;99.90;;;;;;5076900;28;20032;-84
2023/05/26 07:59:59;;;;;;;12.90;3.08;;;12.40;99.90;;;;;;5066794;28;20534;-83
2023/05/26 08:02:24;;;;;;;13.00;3.25;;;12.40;99.90;;;;;;5066406;28;20521;-83
2023/05/26 08:04:50;;;;;;;14.30;3.10;;;12.50;99.90;;;;;;5059581;28;20112;-83
2023/05/26 08:07:16;;;;;;;12.23;2.67;;;12.50;99.90;;;;;;5076372;28;20035;-83
2023/05/26 08:09:41;;;;;;;14.90;2.80;;;12.60;99.90;;;;;;5059921;28;20473;-83
2023/05/26 08:12:07;;;;;;;9.02;2.60;;;12.60;99.90;;;;;;5065554;28;20531;-83
2023/05/26 08:14:33;;;;;;;9.27;2.42;;;12.70;99.90;;;;;;5061460;28;20060;-83
2023/05/26 08:16:58;;;;;;;11.65;3.38;;;12.90;99.90;;;;;;5067618;28;20492;-84
2023/05/26 08:19:24;;;;;;;12.27;3.05;;;13.00;99.90;;;;;;5058949;28;20402;-84
2023/05/26 08:21:49;;;;;;;11.07;2.85;;;13.00;99.90;;;;;;5076178;28;20039;-82
2023/05/26 08:24:15;;;;;;;9.85;2.70;;;13.10;99.90;;;;;;5075144;28;20029;-83
2023/05/26 08:26:41;;;;;;;13.25;2.88;;;13.20;99.90;;;;;;5075728;28;20508;-82
2023/05/26 08:29:06;;;;;;;10.57;3.22;;;13.20;99.90;;;;;;5075080;28;20035;-82
2023/05/26 08:31:32;;;;;;;15.65;3.33;;;13.30;99.90;;;;;;5065474;28;20028;-84
2023/05/26 08:33:57;;;;;;;12.57;3.55;;;13.40;99.90;;;;;;5073591;28;20120;-84
2023/05/26 08:36:23;;;;;;;9.77;2.85;;;13.40;99.90;;;;;;5075821;28;20155;-84
2023/05/26 08:38:48;;;;;;;13.50;3.63;;;13.50;99.90;;;;;;5058574;28;20116;-84
2023/05/26 08:41:18;;;;;;;20.90;4.10;;;13.50;99.90;;;;;;5060801;28;20028;-83
2023/05/26 08:43:52;;;;;;;11.38;3.17;;;13.60;99.90;;;;;;5076220;28;20119;-83
2023/05/26 08:46:18;;;;;;;11.20;3.30;;;13.60;99.90;;;;;;5074730;28;20573;-84
2023/05/26 08:48:44;;;;;;;15.02;3.83;;;13.60;99.90;;;;;;5075534;28;20112;-83
2023/05/26 08:51:11;;;;;;;9.93;3.20;;;13.70;99.90;;;;;;5059129;28;20046;-84
2023/05/26 08:53:39;;;;;;;10.98;2.95;;;13.70;99.90;;;;;;5064497;28;20036;-84
2023/05/26 08:56:07;;;;;;;9.38;3.50;;;13.80;99.90;;;;;;5065240;28;20071;-83
2023/05/26 08:58:34;;;;;;;10.70;3.00;;;13.90;99.90;;;;;;5064296;28;20022;-83
2023/05/26 09:01:01;;;;;;;11.07;3.33;;;14.00;99.90;;;;;;5063239;28;20032;-83
2023/05/26 09:03:27;;;;;;;9.15;2.90;;;14.10;99.90;;;;;;5074241;28;20110;-84
2023/05/26 09:05:53;;;;;;;10.80;3.30;;;14.20;99.90;;;;;;5064686;28;20497;-84
2023/05/26 09:08:19;;;;;;;14.48;3.45;;;14.30;99.90;;;;;;5074122;28;20107;-84
2023/05/26 09:10:44;;;;;;;11.20;3.35;;;14.30;99.90;;;;;;5075862;28;20139;-84
2023/05/26 09:13:13;;;;;;;10.00;2.95;;;14.40;99.90;;;;;;5064053;28;20136;-83
2023/05/26 09:15:40;;;;;;;14.65;3.40;;;14.50;99.90;;;;;;5064401;28;20036;-84
2023/05/26 09:18:07;;;;;;;10.30;2.60;;;14.60;99.90;;;;;;5074557;28;20278;-84
2023/05/26 09:20:38;;;;;;;11.43;2.97;;;14.70;99.90;;;;;;5063261;28;20027;-84
2023/05/26 09:23:04;;;;;;;10.20;3.17;;;14.80;99.90;;;;;;5073846;28;20050;-84
2023/05/26 09:25:40;;;;;;;8.38;3.13;;;14.90;99.90;;;;;;5063851;28;20114;-83
2023/05/26 09:28:08;;;;;;;13.60;3.15;;;15.10;99.90;;;;;;5073979;28;20062;-84
2023/05/26 09:30:36;;;;;;;8.95;2.90;;;15.40;99.90;;;;;;5063113;28;20464;-83
2023/05/26 09:33:04;;;;;;;11.70;3.03;;;16.30;99.90;;;;;;5074314;28;20063;-83
2023/05/26 09:35:41;;;;;;;8.50;2.58;;;17.40;99.90;;;;;;5074255;28;20028;-83
2023/05/26 09:38:11;;;;;;;10.88;3.80;;;18.50;99.90;;;;;;5074655;28;20115;-84
2023/05/26 09:40:44;;;;;;;8.32;2.60;;;19.20;99.90;;;;;;5060714;28;20034;-84
2023/05/26 09:43:10;;;;;;;9.07;2.05;;;19.90;99.90;;;;;;5058423;28;20073;-83
2023/05/26 09:45:37;;;;;;;9.02;2.55;;;20.40;99.90;;;;;;5057781;28;20217;-83
2023/05/26 09:48:05;;;;;;;7.65;2.50;;;20.90;99.90;;;;;;5058211;28;20031;-83
2023/05/26 09:50:32;;;;;;;11.23;2.92;;;21.20;99.90;;;;;;5063552;28;20080;-83
2023/05/26 09:53:00;;;;;;;8.63;2.80;;;21.50;99.10;;;;;;5067961;28;20028;-82
2023/05/26 09:55:25;;;;;;;8.52;3.33;;;21.80;99.00;;;;;;5058656;28;20118;-83
2023/05/26 09:57:53;;;;;;;11.45;2.78;;;22.20;98.40;;;;;;5073986;28;20077;-83
2023/05/26 10:00:20;;;;;;;9.48;2.70;;;22.60;98.20;;;;;;5073565;28;20467;-83
2023/05/26 10:02:47;;;;;;;13.93;2.92;;;22.90;97.80;;;;;;5062947;28;20358;-83
2023/05/26 10:05:14;;;;;;;7.65;2.30;;;23.30;97.70;;;;;;5058315;28;20071;-83
2023/05/26 10:07:42;;;;;;;8.57;2.60;;;23.60;97.20;;;;;;5063510;28;20040;-83
2023/05/26 10:10:11;;;;;;;8.07;2.60;;;24.00;96.90;;;;;;5074385;28;20155;-86
2023/05/26 10:12:37;;;;;;;7.75;2.53;;;24.40;96.70;;;;;;5066233;28;20074;-84
2023/05/26 10:15:04;;;;;;;9.77;2.95;;;24.60;95.90;;;;;;5072898;28;20394;-85
2023/05/26 10:17:30;;;;;;;9.57;3.05;;;24.60;94.80;;;;;;5057915;28;20043;-84
2023/05/26 10:19:57;;;;;;;10.52;2.50;;;24.60;94.10;;;;;;5061574;28;20052;-85
2023/05/26 10:22:54;;;;;;;7.57;2.55;;;24.70;93.80;;;;;;5073301;28;20595;-83
2023/05/26 10:25:20;;;;;;;9.50;2.75;;;24.80;93.50;;;;;;5075266;28;20102;-84
2023/05/26 10:27:59;;;;;;;10.57;2.85;;;25.20;93.60;;;;;;5072406;28;20547;-84
2023/05/26 10:30:26;;;;;;;8.95;2.40;;;25.30;92.70;;;;;;5057080;28;20461;-84
2023/05/26 10:32:56;;;;;;;7.82;2.47;;;25.30;92.20;;;;;;5072264;28;20020;-84
2023/05/26 10:35:24;;;;;;;10.95;3.00;;;25.50;91.90;;;;;;5066933;28;20155;-84
2023/05/26 10:38:16;;;;;;;11.57;3.53;;;25.50;91.30;;;;;;5072745;28;20058;-84
2023/05/26 10:40:44;;;;;;;9.40;2.53;;;25.50;91.30;;;;;;5074065;28;20055;-85
2023/05/26 10:43:13;;;;;;;8.88;3.10;;;25.80;91.40;;;;;;5061940;28;20020;-85
2023/05/26 10:46:02;;;;;;;7.68;2.92;;;25.90;90.30;;;;;;5074020;28;20044;-84
2023/05/26 10:48:35;;;;;;;8.25;2.78;;;25.90;88.90;;;;;;5072527;28;20048;-84
2023/05/26 10:51:14;;;;;;;9.70;3.15;;;25.80;88.70;;;;;;5072229;28;20035;-84
2023/05/26 10:53:42;;;;;;;7.38;2.58;;;25.70;87.60;;;;;;5048846;28;20388;-84
2023/05/26 10:56:12;;;;;;;8.25;2.83;;;25.60;87.10;;;;;;5058223;28;20036;-83
2023/05/26 10:58:58;;;;;;;9.85;2.88;;;25.70;87.00;;;;;;5062095;28;20028;-84
2023/05/26 11:01:30;;;;;;;8.40;2.60;;;25.90;85.90;;;;;;5074906;28;20030;-84
2023/05/26 11:04:12;;;;;;;11.02;2.70;;;26.10;85.40;;;;;;5072625;28;20031;-84
2023/05/26 11:06:48;;;;;;;8.32;2.40;;;26.10;84.60;;;;;;5072551;28;20118;-84
2023/05/26 11:09:14;;;;;;;10.93;3.00;;;26.30;84.30;;;;;;5073134;28;20837;-84
2023/05/26 11:11:54;;;;;;;5.43;2.20;;;26.50;84.20;;;;;;5061638;28;20039;-84
2023/05/26 11:14:24;;;;;;;8.30;2.63;;;26.60;83.50;;;;;;5061976;28;20024;-84
2023/05/26 11:16:50;;;;;;;8.65;3.03;;;26.70;82.80;;;;;;5072685;28;20031;-84
2023/05/26 11:19:36;;;;;;;9.65;2.95;;;26.70;82.00;;;;;;5073729;28;20078;-83
2023/05/26 11:22:10;;;;;;;8.63;2.88;;;26.60;81.30;;;;;;5056492;28;20604;-84
2023/05/26 11:24:36;;;;;;;7.75;2.50;;;26.80;81.80;;;;;;5073788;28;20115;-84
2023/05/26 11:27:04;;;;;;;9.30;2.88;;;27.00;82.00;;;;;;5075568;28;20043;-84
2023/05/26 11:29:30;;;;;;;9.13;2.72;;;27.30;81.70;;;;;;5077165;28;20020;-85
2023/05/26 11:31:56;;;;;;;7.60;2.63;;;27.60;81.40;;;;;;5068329;28;20302;-84
2023/05/26 11:34:22;;;;;;;7.93;2.53;;;27.60;80.40;;;;;;5080242;28;20031;-84
2023/05/26 11:36:49;;;;;;;11.23;3.03;;;27.60;80.10;;;;;;5061627;28;20028;-85
2023/05/26 11:39:15;;;;;;;7.60;2.38;;;27.80;79.40;;;;;;5064529;28;20013;-85
2023/05/26 11:41:41;;;;;;;10.45;3.15;;;27.90;79.30;;;;;;5076825;28;20066;-85
2023/05/26 11:44:15;;;;;;;7.97;2.40;;;27.70;77.50;;;;;;5066662;28;20024;-85
2023/05/26 11:46:43;;;;;;;7.65;2.47;;;27.60;77.90;;;;;;5077416;28;20041;-85
2023/05/26 11:49:17;;;;;;;7.28;2.67;;;27.70;78.10;;;;;;5060469;28;20023;-85
2023/05/26 11:51:50;;;;;;;8.07;2.55;;;27.90;77.10;;;;;;5062190;28;20391;-84
2023/05/26 11:54:17;;;;;;;6.70;2.25;;;28.00;76.80;;;;;;5062130;28;20030;-83
2023/05/26 11:56:43;;;;;;;7.32;2.22;;;28.00;75.60;;;;;;5060008;28;20024;-84
2023/05/26 11:59:09;;;;;;;7.03;2.13;;;28.10;75.60;;;;;;5075522;28;20046;-83
2023/05/26 12:01:35;;;;;;;9.07;2.75;;;28.00;75.20;;;;;;5075151;28;21244;-84
2023/05/26 12:04:04;;;;;;;8.85;2.42;;;27.90;75.60;;;;;;5074666;28;20470;-83
2023/05/26 12:06:31;;;;;;;6.90;2.35;;;28.10;76.50;;;;;;5076441;28;20044;-84
2023/05/26 12:09:02;;;;;;;7.30;2.53;;;28.30;76.80;;;;;;5077038;28;20424;-84
2023/05/26 12:11:37;;;;;;;7.25;2.22;;;28.30;75.80;;;;;;5058181;28;20080;-83
2023/05/26 12:14:04;;;;;;;7.22;2.20;;;28.10;75.90;;;;;;5076033;28;20077;-84
2023/05/26 12:16:35;;;;;;;8.13;2.35;;;28.30;76.40;;;;;;5074925;28;20143;-83
2023/05/26 12:19:06;;;;;;;7.68;2.05;;;28.50;75.30;;;;;;5060015;28;20085;-84
2023/05/26 12:21:38;;;;;;;9.60;2.58;;;28.50;75.60;;;;;;5075393;28;20025;-84
2023/05/26 12:24:04;;;;;;;5.20;2.00;;;28.60;75.00;;;;;;5059961;28;20031;-83
2023/05/26 12:26:30;;;;;;;6.20;2.00;;;28.70;75.30;;;;;;5075050;28;20494;-83
2023/05/26 12:29:05;;;;;;;8.30;3.00;;;28.80;75.00;;;;;;5073910;28;20033;-83
2023/05/26 12:31:41;;;;;;;9.40;2.58;;;29.00;74.80;;;;;;5074988;28;20031;-83
2023/05/26 12:34:11;;;;;;;7.90;2.78;;;29.20;74.20;;;;;;5060121;28;20040;-84
2023/05/26 12:36:37;;;;;;;9.95;2.33;;;29.10;73.80;;;;;;5073522;28;20454;-84
2023/05/26 12:39:03;;;;;;;7.68;2.63;;;29.00;73.40;;;;;;5075575;28;20080;-84
2023/05/26 12:41:28;;;;;;;8.88;3.58;;;28.90;73.50;;;;;;5075210;28;20385;-84
2023/05/26 12:43:54;;;;;;;7.88;2.55;;;28.90;72.80;;;;;;5074692;28;20107;-83